createdAt,value
2019-06-01T00:00:11.624Z,25.05
2019-06-01T00:02:36.107Z,18.80
2019-06-01T00:05:06.713Z,23.07
2019-06-01T00:07:35.540Z,24.27
2019-06-01T00:10:06.901Z,20.92
2019-06-01T00:12:35.587Z,20.65
2019-06-01T00:15:06.686Z,20.72
2019-06-01T00:17:35.347Z,15.63
2019-06-01T00:20:05.356Z,21.10
2019-06-01T00:22:35.194Z,22.27
2019-06-01T00:25:05.683Z,21.85
2019-06-01T00:27:34.422Z,24.30
2019-06-01T00:30:03.193Z,17.50
2019-06-01T00:32:31.891Z,13.33
2019-06-01T00:35:00.595Z,14.78
2019-06-01T00:37:29.374Z,18.82
2019-06-01T00:39:58.208Z,16.40
2019-06-01T00:42:27.272Z,15.28
2019-06-01T00:44:56.266Z,16.97
2019-06-01T00:47:25.389Z,18.37
2019-06-01T00:49:54.103Z,16.67
2019-06-01T00:52:22.927Z,20.05
2019-06-01T00:54:51.902Z,20.52
2019-06-01T00:57:22.226Z,15.75
2019-06-01T00:59:53.112Z,16.48
2019-06-01T01:02:21.367Z,17.70
2019-06-01T01:05:02.176Z,20.02
2019-06-01T01:07:31.530Z,17.73
2019-06-01T01:10:00.499Z,16.62
2019-06-01T01:12:29.439Z,14.75
2019-06-01T01:14:58.247Z,18.37
2019-06-01T01:17:27.115Z,19.90
2019-06-01T01:20:02.723Z,18.93
2019-06-01T01:22:31.450Z,16.20
2019-06-01T01:25:00.160Z,21.90
2019-06-01T01:27:28.783Z,17.52
2019-06-01T01:29:57.705Z,18.57
2019-06-01T01:32:26.460Z,18.98
2019-06-01T01:34:55.610Z,18.97
2019-06-01T01:37:24.474Z,21.53
2019-06-01T01:39:54.233Z,18.97
2019-06-01T01:42:23.168Z,16.07
2019-06-01T01:44:52.533Z,16.82
2019-06-01T01:47:21.499Z,18.02
2019-06-01T01:49:50.133Z,16.23
2019-06-01T01:52:18.872Z,17.73
2019-06-01T01:54:47.615Z,20.00
2019-06-01T01:57:16.389Z,19.30
2019-06-01T01:59:45.091Z,21.67
2019-06-01T02:02:17.075Z,23.57
2019-06-01T02:04:46.017Z,22.25
2019-06-01T02:07:14.923Z,28.27
2019-06-01T02:09:43.897Z,22.27
2019-06-01T02:12:12.535Z,25.40
2019-06-01T02:14:41.266Z,20.03
2019-06-01T02:17:10.035Z,23.80
2019-06-01T02:19:39.034Z,21.20
2019-06-01T02:22:07.997Z,19.03
2019-06-01T02:24:36.712Z,22.20
2019-06-01T02:27:05.581Z,20.20
2019-06-01T02:29:34.331Z,18.80
2019-06-01T02:32:04.723Z,23.60
2019-06-01T02:34:33.526Z,18.17
2019-06-01T02:37:02.404Z,24.97
2019-06-01T02:39:31.483Z,20.35
2019-06-01T02:42:01.254Z,25.63
2019-06-01T02:44:30.818Z,21.90
2019-06-01T02:46:59.661Z,18.83
2019-06-01T02:49:29.883Z,20.27
2019-06-01T02:51:59.254Z,21.97
2019-06-01T02:54:28.041Z,19.90
2019-06-01T02:56:57.812Z,20.50
2019-06-01T02:59:26.711Z,21.40
2019-06-01T03:02:01.391Z,23.18
2019-06-01T03:04:27.472Z,21.37
2019-06-01T03:06:59.542Z,22.37
2019-06-01T03:09:30.198Z,20.00
2019-06-01T03:12:02.331Z,25.93
2019-06-01T03:14:33.953Z,21.95
2019-06-01T03:17:04.167Z,20.97
2019-06-01T03:19:36.302Z,19.20
2019-06-01T03:22:07.257Z,20.92
2019-06-01T03:24:36.863Z,23.45
2019-06-01T03:27:06.385Z,22.03
2019-06-01T03:29:38.507Z,22.55
2019-06-01T03:32:29.037Z,20.02
2019-06-01T03:34:37.751Z,20.55
2019-06-01T03:37:07.203Z,22.05
2019-06-01T03:39:36.232Z,18.77
2019-06-01T03:42:05.284Z,18.52
2019-06-01T03:44:34.235Z,19.73
2019-06-01T03:47:03.789Z,20.45
2019-06-01T03:49:32.695Z,19.20
2019-06-01T03:52:02.597Z,24.03
2019-06-01T03:54:31.590Z,18.45
2019-06-01T03:57:00.882Z,22.20
2019-06-01T03:59:29.946Z,19.20
2019-06-01T04:01:58.530Z,20.27
2019-06-01T04:04:27.237Z,20.88
2019-06-01T04:06:56.002Z,22.80
2019-06-01T04:09:25.303Z,21.05
2019-06-01T04:11:54.275Z,20.10
2019-06-01T04:14:22.951Z,21.95
2019-06-01T04:16:51.937Z,19.02
2019-06-01T04:19:20.831Z,27.10
2019-06-01T04:21:49.664Z,20.15
2019-06-01T04:24:18.503Z,22.15
2019-06-01T04:26:47.299Z,16.93
2019-06-01T04:29:15.947Z,19.80
2019-06-01T04:31:44.814Z,23.90
2019-06-01T04:34:13.589Z,19.17
2019-06-01T04:36:42.491Z,20.70
2019-06-01T04:39:11.668Z,18.95
2019-06-01T04:41:40.477Z,21.77
2019-06-01T04:44:10.040Z,18.73
2019-06-01T04:46:38.953Z,21.12
2019-06-01T04:49:08.557Z,20.70
2019-06-01T04:51:37.569Z,15.72
2019-06-01T04:54:06.861Z,15.60
2019-06-01T04:56:35.597Z,15.10
2019-06-01T04:59:04.925Z,11.10
2019-06-01T05:01:33.987Z,10.48
2019-06-01T05:04:02.655Z,10.75
2019-06-01T05:06:31.595Z,10.55
2019-06-01T05:09:00.461Z,9.90
2019-06-01T05:11:29.395Z,10.95
2019-06-01T05:13:58.278Z,10.45
2019-06-01T05:16:27.104Z,9.63
2019-06-01T05:18:56.129Z,9.13
2019-06-01T05:21:25.262Z,12.65
2019-06-01T05:23:54.100Z,11.48
2019-06-01T05:26:23.158Z,7.35
2019-06-01T05:28:52.187Z,9.50
2019-06-01T05:31:25.063Z,6.95
2019-06-01T05:33:51.765Z,7.30
2019-06-01T05:36:20.973Z,6.35
2019-06-01T05:38:50.106Z,8.83
2019-06-01T05:41:20.499Z,8.18
2019-06-01T05:43:49.474Z,7.87
2019-06-01T05:46:18.160Z,6.97
2019-06-01T05:48:47.613Z,8.65
2019-06-01T05:51:18.884Z,8.83
2019-06-01T05:53:48.596Z,8.65
2019-06-01T05:56:18.856Z,6.95
2019-06-01T05:58:49.355Z,8.43
2019-06-01T06:01:19.686Z,8.78
2019-06-01T06:03:48.903Z,9.88
2019-06-01T06:06:18.012Z,8.00
2019-06-01T06:08:46.653Z,9.65
2019-06-01T06:11:15.466Z,7.95
2019-06-01T06:13:44.274Z,9.10
2019-06-01T06:16:13.799Z,6.70
2019-06-01T06:18:42.613Z,6.47
2019-06-01T06:21:11.967Z,7.60
2019-06-01T06:23:41.053Z,6.80
2019-06-01T06:26:09.811Z,9.68
2019-06-01T06:28:38.535Z,7.75
2019-06-01T06:31:07.340Z,7.75
2019-06-01T06:33:37.009Z,7.33
2019-06-01T06:36:06.152Z,6.20
2019-06-01T06:38:35.004Z,6.28
2019-06-01T06:41:03.779Z,6.87
2019-06-01T06:43:33.336Z,13.70
2019-06-01T06:46:02.053Z,8.40
2019-06-01T06:48:30.913Z,9.08
2019-06-01T06:51:00.892Z,7.05
2019-06-01T06:53:34.816Z,8.90
2019-06-01T06:56:00.603Z,10.03
2019-06-01T06:58:29.538Z,9.03
2019-06-01T07:00:58.433Z,8.00
2019-06-01T07:03:27.551Z,7.70
2019-06-01T07:05:56.377Z,11.65
2019-06-01T07:08:25.976Z,7.65
2019-06-01T07:10:57.851Z,8.43
2019-06-01T07:13:27.615Z,9.45
2019-06-01T07:15:56.575Z,10.53
2019-06-01T07:18:25.745Z,7.67
2019-06-01T07:20:54.640Z,7.62
2019-06-01T07:23:23.853Z,7.22
2019-06-01T07:25:52.879Z,6.97
2019-06-01T07:28:22.043Z,11.90
2019-06-01T07:30:50.931Z,7.08
2019-06-01T07:33:20.498Z,6.17
2019-06-01T07:35:49.722Z,6.50
2019-06-01T07:38:18.545Z,8.63
2019-06-01T07:40:47.215Z,6.53
2019-06-01T07:43:15.925Z,5.95
2019-06-01T07:45:44.762Z,8.33
2019-06-01T07:48:13.945Z,7.67
2019-06-01T07:50:42.692Z,7.08
2019-06-01T07:53:11.476Z,8.48
2019-06-01T07:55:40.352Z,8.55
2019-06-01T07:58:09.146Z,9.33
2019-06-01T08:00:38.080Z,7.60
2019-06-01T08:03:06.893Z,7.72
2019-06-01T08:05:35.795Z,11.18
2019-06-01T08:08:04.612Z,7.35
2019-06-01T08:10:33.607Z,7.37
2019-06-01T08:13:04.830Z,7.00
2019-06-01T08:17:21.961Z,8.28
2019-06-01T08:18:32.792Z,6.37
2019-06-01T08:20:59.150Z,7.70
2019-06-01T08:23:28.371Z,8.85
2019-06-01T08:25:57.566Z,8.63
2019-06-01T08:28:26.553Z,5.75
2019-06-01T08:30:55.261Z,7.65
2019-06-01T08:33:26.382Z,6.92
2019-06-01T08:35:54.344Z,5.78
2019-06-01T08:38:23.407Z,7.35
2019-06-01T08:40:52.434Z,6.50
2019-06-01T08:43:21.344Z,7.78
2019-06-01T08:45:50.344Z,5.87
2019-06-01T08:48:19.070Z,6.95
2019-06-01T08:50:47.975Z,8.35
2019-06-01T08:53:16.659Z,7.62
2019-06-01T08:55:45.461Z,5.53
2019-06-01T08:58:14.180Z,5.22
2019-06-01T09:00:42.998Z,6.83
2019-06-01T09:03:11.794Z,7.05
2019-06-01T09:05:40.798Z,9.05
2019-06-01T09:08:09.605Z,8.30
2019-06-01T09:10:38.648Z,10.08
2019-06-01T09:13:07.605Z,8.05
2019-06-01T09:15:36.681Z,8.18
2019-06-01T09:18:05.840Z,6.47
2019-06-01T09:20:38.394Z,6.05
2019-06-01T09:23:05.510Z,8.50
2019-06-01T09:25:34.472Z,9.23
2019-06-01T09:28:03.204Z,6.17
2019-06-01T09:30:32.138Z,5.55
2019-06-01T09:33:01.149Z,6.62
2019-06-01T09:35:49.959Z,6.10
2019-06-01T09:38:00.723Z,5.35
2019-06-01T09:40:30.414Z,5.72
2019-06-01T09:43:00.011Z,6.97
2019-06-01T09:45:29.871Z,7.67
2019-06-01T09:47:59.012Z,5.75
2019-06-01T09:50:29.158Z,7.28
2019-06-01T09:52:58.199Z,6.80
2019-06-01T09:55:27.736Z,8.78
2019-06-01T09:57:57.373Z,6.95
2019-06-01T10:00:26.311Z,5.80
2019-06-01T10:02:55.136Z,8.35
2019-06-01T10:05:25.535Z,4.92
2019-06-01T10:07:54.477Z,6.45
2019-06-01T10:10:23.268Z,7.53
2019-06-01T10:12:52.363Z,6.72
2019-06-01T10:15:21.181Z,5.35
2019-06-01T10:17:50.121Z,7.37
2019-06-01T10:20:18.932Z,4.37
2019-06-01T10:22:47.898Z,4.58
2019-06-01T10:25:17.975Z,5.65
2019-06-01T10:27:47.885Z,5.17
2019-06-01T10:30:17.711Z,5.40
2019-06-01T10:32:46.628Z,5.58
2019-06-01T10:35:17.743Z,6.15
2019-06-01T10:37:46.692Z,7.30
2019-06-01T10:40:15.653Z,5.62
2019-06-01T10:42:44.479Z,5.00
2019-06-01T10:45:13.639Z,5.50
2019-06-01T10:47:42.387Z,4.20
2019-06-01T10:50:11.339Z,5.60
2019-06-01T10:52:40.396Z,5.87
2019-06-01T10:55:09.935Z,5.83
2019-06-01T10:57:40.579Z,6.22
2019-06-01T11:00:11.106Z,3.87
2019-06-01T11:02:40.852Z,4.60
2019-06-01T11:05:10.199Z,6.37
2019-06-01T11:07:39.190Z,4.60
2019-06-01T11:10:09.310Z,4.60
2019-06-01T11:12:39.117Z,5.12
2019-06-01T11:15:10.070Z,6.67
2019-06-01T11:17:39.271Z,4.87
2019-06-01T11:20:09.247Z,6.10
2019-06-01T11:22:39.754Z,5.40
2019-06-01T11:25:15.689Z,4.15
2019-06-01T11:27:44.485Z,4.22
2019-06-01T11:30:14.807Z,5.33
2019-06-01T11:32:44.971Z,4.62
2019-06-01T11:35:14.678Z,5.65
2019-06-01T11:37:44.536Z,4.15
2019-06-01T11:40:13.755Z,4.50
2019-06-01T11:42:43.022Z,5.70
2019-06-01T11:45:12.392Z,4.90
2019-06-01T11:47:41.406Z,5.35
2019-06-01T11:50:10.676Z,5.35
2019-06-01T11:52:41.066Z,3.87
2019-06-01T11:55:10.681Z,3.60
2019-06-01T11:58:05.818Z,4.12
2019-06-01T12:01:03.095Z,4.12
2019-06-01T12:06:19.839Z,6.12
2019-06-01T12:08:46.374Z,5.00
2019-06-01T12:11:10.539Z,2.85
2019-06-01T12:13:40.191Z,4.33
2019-06-01T12:16:11.136Z,6.58
2019-06-01T12:18:40.593Z,2.98
2019-06-01T12:21:09.941Z,3.42
2019-06-01T12:23:39.047Z,3.87
2019-06-01T12:26:07.698Z,3.37
2019-06-01T12:28:41.567Z,3.15
2019-06-01T12:31:10.592Z,4.05
2019-06-01T12:33:46.279Z,4.35
2019-06-01T12:36:15.209Z,3.45
2019-06-01T12:38:53.731Z,2.60
2019-06-01T12:41:23.689Z,3.35
2019-06-01T12:44:09.739Z,2.80
2019-06-01T12:46:39.798Z,2.45
2019-06-01T12:49:09.157Z,7.28
2019-06-01T12:51:38.254Z,3.00
2019-06-01T12:54:07.250Z,3.42
2019-06-01T12:56:36.206Z,2.40
2019-06-01T12:59:05.397Z,3.05
2019-06-01T13:01:34.197Z,4.08
2019-06-01T13:04:03.095Z,2.20
2019-06-01T13:06:31.807Z,1.95
2019-06-01T13:09:01.122Z,4.72
2019-06-01T13:11:29.826Z,3.00
2019-06-01T13:14:04.240Z,3.15
2019-06-01T13:16:32.147Z,3.72
2019-06-01T13:19:00.880Z,3.30
2019-06-01T13:21:29.693Z,2.85
2019-06-01T13:23:58.442Z,2.80
2019-06-01T13:26:27.793Z,4.10
2019-06-01T13:28:56.673Z,3.83
2019-06-01T13:31:25.537Z,7.12
2019-06-01T13:33:54.204Z,5.67
2019-06-01T13:36:23.307Z,3.22
2019-06-01T13:38:52.964Z,3.30
2019-06-01T13:41:21.976Z,3.75
2019-06-01T13:43:51.431Z,2.45
2019-06-01T13:46:20.468Z,2.87
2019-06-01T13:48:49.969Z,2.50
2019-06-01T13:51:18.984Z,2.80
2019-06-01T13:53:48.484Z,2.02
2019-06-01T13:56:17.550Z,2.83
2019-06-01T13:58:46.702Z,4.10
2019-06-01T14:01:15.759Z,2.37
2019-06-01T14:03:45.035Z,2.70
2019-06-01T14:06:14.324Z,3.47
2019-06-01T14:08:43.267Z,2.25
2019-06-01T14:11:13.109Z,4.05
2019-06-01T14:13:42.281Z,3.30
2019-06-01T14:16:11.299Z,3.60
2019-06-01T14:18:42.177Z,2.22
2019-06-01T14:21:10.956Z,4.78
2019-06-01T14:23:40.269Z,4.15
2019-06-01T14:26:08.997Z,3.05
2019-06-01T14:28:38.185Z,11.03
2019-06-01T14:31:06.922Z,2.90
2019-06-01T14:33:35.749Z,4.72
2019-06-01T14:36:04.605Z,1.32
2019-06-01T14:38:46.581Z,3.15
2019-06-01T14:41:04.429Z,3.87
2019-06-01T14:43:51.189Z,5.12
2019-06-01T14:46:09.183Z,2.45
2019-06-01T14:48:38.397Z,2.92
2019-06-01T14:51:10.599Z,2.80
2019-06-01T14:53:41.081Z,10.63
2019-06-01T14:56:09.962Z,7.22
2019-06-01T14:58:38.908Z,5.65
2019-06-01T15:01:07.733Z,2.47
2019-06-01T15:03:36.579Z,2.75
2019-06-01T15:06:06.081Z,5.95
2019-06-01T15:08:34.797Z,4.08
2019-06-01T15:11:03.502Z,6.35
2019-06-01T15:13:32.329Z,3.25
2019-06-01T15:16:02.023Z,12.15
2019-06-01T15:18:31.038Z,2.40
2019-06-01T15:20:59.933Z,4.10
2019-06-01T15:23:28.726Z,3.55
2019-06-01T15:26:04.695Z,4.60
2019-06-01T15:28:30.879Z,7.33
2019-06-01T15:31:01.455Z,5.70
2019-06-01T15:33:35.919Z,3.00
2019-06-01T15:36:08.376Z,2.55
2019-06-01T15:38:57.927Z,3.85
2019-06-01T15:41:32.302Z,3.72
2019-06-01T15:44:09.258Z,2.60
2019-06-01T15:46:38.124Z,3.70
2019-06-01T15:49:07.149Z,5.97
2019-06-01T15:51:39.214Z,5.55
2019-06-01T15:54:16.786Z,4.17
2019-06-01T15:56:45.733Z,2.80
2019-06-01T15:59:14.458Z,3.92
2019-06-01T16:01:43.321Z,3.08
2019-06-01T16:04:12.007Z,3.00
2019-06-01T16:06:40.797Z,4.67
2019-06-01T16:09:09.720Z,2.92
2019-06-01T16:11:42.028Z,3.83
2019-06-01T16:14:10.932Z,4.08
2019-06-01T16:16:39.678Z,3.65
2019-06-01T16:19:08.379Z,2.92
2019-06-01T16:21:37.160Z,2.72
2019-06-01T16:24:05.932Z,2.45
2019-06-01T16:26:34.753Z,3.52
2019-06-01T16:29:04.953Z,3.90
2019-06-01T16:31:40.295Z,4.12
2019-06-01T16:40:23.377Z,3.35
2019-06-01T16:42:52.199Z,3.95
2019-06-01T16:45:20.997Z,3.83
2019-06-01T16:47:55.899Z,2.75
2019-06-01T16:50:20.434Z,11.22
2019-06-01T16:52:49.311Z,3.08
2019-06-01T16:58:21.065Z,2.60
2019-06-01T17:00:49.941Z,3.52
2019-06-01T17:03:18.928Z,3.20
2019-06-01T17:05:47.791Z,5.42
2019-06-01T17:08:16.645Z,2.67
2019-06-01T17:10:52.661Z,2.72
2019-06-01T17:13:21.460Z,3.98
2019-06-01T17:15:50.228Z,3.98
2019-06-01T17:18:18.957Z,3.45
2019-06-01T17:20:57.156Z,4.33
2019-06-01T17:23:28.570Z,3.22
2019-06-01T17:25:59.852Z,5.05
2019-06-01T17:31:20.970Z,3.45
2019-06-01T17:33:51.873Z,4.20
2019-06-01T17:36:23.515Z,4.40
2019-06-01T17:38:53.603Z,4.92
2019-06-01T17:41:26.329Z,3.10
2019-06-01T17:44:02.582Z,3.33
2019-06-01T17:49:31.531Z,5.30
2019-06-01T17:54:40.509Z,2.52
2019-06-01T17:57:09.465Z,4.47
2019-06-01T17:59:38.375Z,4.53
2019-06-01T18:02:23.264Z,4.55
2019-06-01T18:04:52.124Z,4.58
2019-06-01T18:07:24.088Z,4.42
2019-06-01T18:10:02.443Z,3.33
2019-06-01T18:12:31.312Z,5.42
2019-06-01T18:17:52.909Z,5.33
2019-06-01T18:20:26.475Z,4.60
2019-06-01T18:23:13.200Z,6.03
2019-06-01T18:25:40.339Z,4.42
2019-06-01T18:28:19.482Z,3.42
2019-06-01T18:43:19.491Z,5.00
2019-06-01T18:45:39.935Z,6.05
2019-06-01T18:48:10.063Z,3.10
2019-06-01T18:50:39.317Z,6.30
2019-06-01T18:53:08.475Z,4.90
2019-06-01T18:55:37.466Z,3.83
2019-06-01T19:01:06.359Z,5.80
2019-06-01T19:03:35.279Z,4.33
2019-06-01T19:08:47.747Z,4.12
2019-06-01T19:11:34.762Z,4.87
2019-06-01T19:13:50.060Z,5.67
2019-06-01T19:16:26.617Z,3.42
2019-06-01T19:18:56.710Z,5.08
2019-06-01T19:21:37.944Z,3.50
2019-06-01T19:24:02.465Z,6.92
2019-06-01T19:26:31.187Z,4.03
2019-06-01T19:28:59.986Z,10.63
2019-06-01T19:31:28.718Z,7.20
2019-06-01T19:33:57.577Z,5.97
2019-06-01T19:36:26.847Z,6.28
2019-06-01T19:38:57.453Z,5.97
2019-06-01T19:41:26.171Z,7.15
2019-06-01T19:43:54.875Z,8.48
2019-06-01T19:46:23.719Z,6.58
2019-06-01T19:48:52.440Z,9.43
2019-06-01T19:51:21.257Z,7.30
2019-06-01T19:53:49.925Z,8.03
2019-06-01T19:56:20.453Z,9.43
2019-06-01T19:58:49.173Z,9.50
2019-06-01T20:01:19.537Z,8.40
2019-06-01T20:03:48.278Z,9.50
2019-06-01T20:06:17.116Z,9.08
2019-06-01T20:08:45.877Z,7.17
2019-06-01T20:11:15.118Z,10.60
2019-06-01T20:13:44.146Z,9.45
2019-06-01T20:16:12.817Z,9.95
2019-06-01T20:18:41.599Z,8.08
2019-06-01T20:21:10.242Z,11.83
2019-06-01T20:23:39.062Z,8.53
2019-06-01T20:26:07.756Z,10.88
2019-06-01T20:28:41.318Z,12.20
2019-06-01T20:31:11.654Z,11.65
2019-06-01T20:33:40.592Z,8.25
2019-06-01T20:36:09.296Z,9.23
2019-06-01T20:38:37.937Z,10.23
2019-06-01T20:41:06.643Z,14.83
2019-06-01T20:43:35.323Z,11.75
2019-06-01T20:46:04.083Z,8.63
2019-06-01T20:48:32.793Z,10.10
2019-06-01T20:51:01.511Z,10.28
2019-06-01T20:53:30.305Z,10.88
2019-06-01T20:55:58.997Z,11.33
2019-06-01T20:58:27.801Z,10.05
2019-06-01T21:04:28.657Z,12.05
2019-06-01T21:06:57.449Z,13.13
2019-06-01T21:09:26.262Z,17.48
2019-06-01T21:11:55.027Z,8.20
2019-06-01T21:14:23.724Z,9.70
2019-06-01T21:16:52.566Z,13.75
2019-06-01T21:19:22.408Z,12.00
2019-06-01T21:21:51.378Z,11.90
2019-06-01T21:24:21.113Z,9.05
2019-06-01T21:26:50.283Z,11.93
2019-06-01T21:58:55.498Z,21.48
2019-06-01T22:01:56.695Z,12.55
2019-06-01T22:04:38.746Z,11.70
2019-06-01T22:07:23.241Z,11.50
2019-06-01T22:09:52.209Z,11.35
2019-06-01T22:12:29.143Z,18.23
2019-06-01T22:16:15.870Z,12.95
2019-06-01T22:17:43.865Z,22.50
2019-06-01T22:20:14.131Z,11.60
2019-06-01T22:22:44.940Z,14.00
2019-06-01T22:25:13.733Z,9.45
2019-06-01T22:27:42.478Z,11.48
2019-06-01T22:30:13.144Z,12.33
2019-06-01T22:32:41.769Z,18.52
2019-06-01T22:35:10.572Z,12.63
2019-06-01T22:37:39.339Z,10.05
2019-06-01T22:40:08.778Z,13.75
2019-06-01T22:42:37.514Z,14.65
2019-06-01T22:45:09.002Z,10.58
2019-06-01T22:47:37.474Z,13.55
2019-06-01T22:50:11.471Z,12.43
2019-06-01T22:52:40.269Z,21.70
2019-06-01T22:55:09.022Z,10.28
2019-06-01T22:57:42.984Z,16.60
2019-06-01T23:00:10.184Z,13.10
2019-06-01T23:02:43.663Z,10.48
2019-06-01T23:05:12.116Z,11.55
2019-06-01T23:07:44.020Z,14.18
2019-06-01T23:10:17.281Z,12.15
2019-06-01T23:12:46.087Z,15.15
2019-06-01T23:15:23.301Z,16.57
2019-06-01T23:17:52.665Z,12.95
2019-06-01T23:20:23.819Z,13.03
2019-06-01T23:22:52.539Z,15.93
2019-06-01T23:25:22.536Z,14.50
2019-06-01T23:27:51.408Z,15.50
2019-06-01T23:30:20.298Z,14.68
2019-06-01T23:32:49.125Z,14.90
2019-06-01T23:35:17.849Z,13.20
2019-06-01T23:37:46.576Z,20.97
2019-06-01T23:40:15.269Z,14.13
2019-06-01T23:42:44.152Z,13.22
2019-06-01T23:45:12.862Z,14.38
2019-06-01T23:47:41.747Z,13.75
2019-06-01T23:50:10.672Z,15.40
2019-06-01T23:52:39.433Z,17.52
2019-06-01T23:55:08.260Z,17.42
2019-06-01T23:57:37.130Z,21.40
